Portada
METAR-TAF:

METAR-TAF

Aeroports :

Saglek Bay, Terranova i Labrador, Canadà

latitud: 58-20N, longitud: 062-35W, altitud: 483 m

Observació

L'informe es va fer fa 32 minuts, a les 14:00 UTC
Vent 3 kt del Sud-Oest, variant entre Sud i Oest
Temperatura 2°C
Humitat 80%
Pressió 1023 hPa

METAR: CWZZ 171400Z AUTO 22003KT 190V270 ////SM NCD 02/M01 A3021

Hora: 11:32 (14:32 UTC)


TAF: manca

Observacions i pronòstics meteorològics de més de 4000 aeroports (METAR i TAF).

Les estacions disponibles són els punts grocs i vermells al mapa.

Posi el ratolí al punt desitjat per veure el nom de l'estació.

Feu clic per veure les observacions i els pronòstics meteorològics.

Per canviar el mapa: feu clic els botons verds amb una creu de color negre per apropar; al botó verd amb un guió per allunyar la imatge; o en les fletxes verdes per a mapes adjacents.


METAR-TAF: